createdAt,value
2022-10-05T00:01:00.161Z,13.40
2022-10-05T00:06:11.481Z,15.70
2022-10-05T00:11:17.318Z,12.80
2022-10-05T00:16:21.835Z,13.00
2022-10-05T00:21:27.717Z,10.50
2022-10-05T00:26:33.792Z,10.50
2022-10-05T00:31:37.265Z,18.70
2022-10-05T00:36:40.621Z,15.20
2022-10-05T00:47:35.161Z,12.30
2022-10-05T00:52:56.802Z,16.80
2022-10-05T00:58:28.171Z,13.70
2022-10-05T01:03:53.842Z,13.60
2022-10-05T01:09:24.767Z,11.40
2022-10-05T01:14:52.637Z,12.40
2022-10-05T01:20:10.924Z,15.60
2022-10-05T01:25:39.700Z,15.90
2022-10-05T01:31:01.309Z,14.20
2022-10-05T01:36:29.520Z,11.90
2022-10-05T01:42:09.679Z,17.60
2022-10-05T01:47:22.188Z,15.30
2022-10-05T01:52:51.283Z,14.00
2022-10-05T01:58:07.235Z,11.90
2022-10-05T02:03:35.919Z,14.30
2022-10-05T02:08:47.120Z,12.50
2022-10-05T02:14:07.579Z,14.40
2022-10-05T02:19:36.600Z,11.10
2022-10-05T02:24:46.056Z,17.20
2022-10-05T02:29:53.563Z,9.60
2022-10-05T02:35:02.941Z,14.70
2022-10-05T02:40:38.845Z,15.60
2022-10-05T02:46:03.690Z,15.60
2022-10-05T02:51:23.500Z,13.30
2022-10-05T02:56:56.561Z,16.90
2022-10-05T03:02:13.285Z,13.40
2022-10-05T03:07:23.746Z,16.20
2022-10-05T03:12:51.099Z,14.80
2022-10-05T03:18:06.536Z,13.00
2022-10-05T03:23:33.442Z,17.20
2022-10-05T03:29:00.616Z,11.90
2022-10-05T03:34:09.626Z,11.20
2022-10-05T03:39:12.710Z,15.40
2022-10-05T03:44:38.353Z,14.50
2022-10-05T03:50:13.721Z,12.70
2022-10-05T03:55:35.343Z,14.60
2022-10-05T04:00:40.931Z,16.30
2022-10-05T04:06:01.334Z,13.60
2022-10-05T04:11:17.569Z,17.40
2022-10-05T04:16:29.801Z,12.30
2022-10-05T04:21:38.800Z,15.80
2022-10-05T04:26:57.852Z,12.00
2022-10-05T04:32:16.180Z,15.10
2022-10-05T04:37:27.539Z,14.90
2022-10-05T04:42:39.812Z,14.10
2022-10-05T04:47:55.433Z,12.60
2022-10-05T04:53:04.523Z,13.30
2022-10-05T04:58:07.535Z,15.50
2022-10-05T05:03:16.589Z,13.10
2022-10-05T05:08:58.407Z,16.30
2022-10-05T05:14:17.115Z,23.10
2022-10-05T05:19:35.799Z,17.10
2022-10-05T05:24:55.659Z,17.50
2022-10-05T05:30:12.690Z,14.50
2022-10-05T05:35:25.255Z,13.30
2022-10-05T05:40:34.160Z,15.00
2022-10-05T05:45:42.722Z,15.10
2022-10-05T05:51:08.942Z,14.30
2022-10-05T05:56:21.158Z,16.10
2022-10-05T06:01:33.531Z,14.90
2022-10-05T06:06:42.806Z,19.40
2022-10-05T06:11:55.455Z,15.20
2022-10-05T06:17:05.528Z,14.30
2022-10-05T06:22:29.660Z,17.40
2022-10-05T06:28:03.998Z,11.00
2022-10-05T06:33:50.593Z,18.50
2022-10-05T06:39:16.020Z,15.50
2022-10-05T06:44:49.345Z,13.50
2022-10-05T06:50:14.299Z,12.60
2022-10-05T06:55:51.247Z,15.70
2022-10-05T07:01:11.130Z,14.30
2022-10-05T07:06:44.466Z,13.50
2022-10-05T07:12:12.554Z,13.70
2022-10-05T07:18:07.173Z,12.70
2022-10-05T07:23:20.106Z,12.00
2022-10-05T07:29:11.032Z,12.10
2022-10-05T07:34:22.839Z,12.30
2022-10-05T07:40:00.595Z,10.60
2022-10-05T07:45:23.847Z,10.00
2022-10-05T07:50:39.022Z,10.70
2022-10-05T07:55:50.425Z,12.50
2022-10-05T08:00:53.528Z,10.80
2022-10-05T08:05:59.837Z,9.60
2022-10-05T08:11:29.642Z,10.10
2022-10-05T08:16:38.168Z,11.40
2022-10-05T08:22:11.801Z,9.60
2022-10-05T08:27:33.948Z,9.70
2022-10-05T08:33:03.164Z,8.10
2022-10-05T08:38:18.864Z,10.80
2022-10-05T08:43:55.151Z,10.40
2022-10-05T08:49:42.389Z,9.40
2022-10-05T08:54:54.918Z,12.00
2022-10-05T09:00:04.741Z,11.00
2022-10-05T09:05:45.228Z,7.30
2022-10-05T09:11:09.460Z,13.00
2022-10-05T09:16:31.922Z,8.60
2022-10-05T09:21:57.413Z,9.70
2022-10-05T09:27:03.632Z,11.10
2022-10-05T09:32:21.582Z,9.30
2022-10-05T09:37:44.963Z,12.50
2022-10-05T09:42:58.431Z,9.20
2022-10-05T09:48:22.567Z,9.10
2022-10-05T09:53:47.530Z,8.30
2022-10-05T09:58:55.091Z,6.90
2022-10-05T10:04:21.841Z,8.30
2022-10-05T10:09:40.703Z,11.20
2022-10-05T10:15:15.531Z,9.00
2022-10-05T10:20:49.158Z,7.80
2022-10-05T10:26:28.357Z,8.70
2022-10-05T10:31:47.964Z,10.50
2022-10-05T10:37:32.979Z,10.70
2022-10-05T10:42:57.003Z,7.10
2022-10-05T10:48:19.993Z,6.50
2022-10-05T10:53:49.066Z,8.80
2022-10-05T10:59:11.428Z,11.00
2022-10-05T11:04:40.232Z,7.00
2022-10-05T11:10:02.182Z,7.70
2022-10-05T11:15:22.254Z,5.80
2022-10-05T11:20:58.456Z,5.80
2022-10-05T11:26:27.880Z,8.10
2022-10-05T11:31:34.734Z,5.10
2022-10-05T11:36:57.464Z,8.80
2022-10-05T11:42:22.989Z,5.20
2022-10-05T11:47:38.261Z,6.80
2022-10-05T11:53:02.668Z,6.20
2022-10-05T11:58:12.064Z,5.40
2022-10-05T12:03:29.071Z,6.10
2022-10-05T12:09:11.165Z,6.00
2022-10-05T12:14:37.834Z,5.80
2022-10-05T12:19:49.570Z,6.20
2022-10-05T12:25:30.528Z,4.70
2022-10-05T12:31:15.379Z,4.10
2022-10-05T12:36:35.922Z,5.70
2022-10-05T12:42:29.360Z,5.60
2022-10-05T12:47:38.250Z,4.50
2022-10-05T12:53:15.863Z,6.40
2022-10-05T12:58:46.108Z,4.10
2022-10-05T13:04:11.023Z,6.80
2022-10-05T13:09:44.850Z,3.80
2022-10-05T13:15:01.883Z,8.80
2022-10-05T13:20:37.756Z,6.70
2022-10-05T13:25:53.974Z,5.70
2022-10-05T13:31:28.272Z,4.50
2022-10-05T13:36:44.518Z,6.90
2022-10-05T13:42:00.218Z,5.40
2022-10-05T13:47:27.901Z,6.20
2022-10-05T13:52:45.238Z,5.90
2022-10-05T13:58:06.161Z,5.20
2022-10-05T14:03:31.649Z,7.80
2022-10-05T14:08:46.543Z,5.00
2022-10-05T14:13:50.605Z,7.30
2022-10-05T14:19:05.999Z,5.60
2022-10-05T14:24:45.188Z,5.80
2022-10-05T14:30:01.916Z,6.30
2022-10-05T14:35:13.071Z,6.40
2022-10-05T14:40:29.398Z,5.40
2022-10-05T14:45:34.193Z,10.20
2022-10-05T14:51:12.972Z,8.10
2022-10-05T14:56:22.946Z,8.30
2022-10-05T15:01:31.916Z,9.40
2022-10-05T15:06:55.443Z,10.40
2022-10-05T15:12:02.769Z,10.30
2022-10-05T15:17:18.474Z,7.10
2022-10-05T15:22:50.672Z,7.50
2022-10-05T15:28:49.003Z,7.30
2022-10-05T15:34:19.105Z,9.10
2022-10-05T15:39:40.842Z,11.90
2022-10-05T15:45:07.894Z,9.90
2022-10-05T15:50:24.965Z,10.30
2022-10-05T15:55:43.619Z,13.00
2022-10-05T16:01:06.428Z,10.30
2022-10-05T16:06:43.897Z,9.80
2022-10-05T16:11:59.568Z,12.30
2022-10-05T16:17:29.220Z,11.20
2022-10-05T16:22:43.526Z,33.10
2022-10-05T16:28:20.743Z,27.20
2022-10-05T16:33:53.971Z,38.50
2022-10-05T16:39:22.531Z,46.60
2022-10-05T16:44:53.671Z,50.10
2022-10-05T16:50:28.112Z,47.80
2022-10-05T16:55:43.082Z,49.50
2022-10-05T17:01:07.130Z,70.40
2022-10-05T17:06:23.501Z,91.60
2022-10-05T17:11:43.398Z,124.90
2022-10-05T17:16:56.391Z,78.40
2022-10-05T17:22:25.164Z,55.30
2022-10-05T17:27:51.309Z,53.50
2022-10-05T17:32:58.753Z,64.20
2022-10-05T17:38:22.466Z,41.30
2022-10-05T17:43:34.288Z,49.00
2022-10-05T17:48:37.413Z,42.60
2022-10-05T17:59:10.142Z,34.20
2022-10-05T18:04:26.812Z,42.40
2022-10-05T18:09:34.807Z,56.40
2022-10-05T18:14:58.352Z,33.30
2022-10-05T18:20:20.486Z,27.60
2022-10-05T18:25:35.540Z,59.80
2022-10-05T18:31:05.225Z,59.10
2022-10-05T18:36:37.878Z,86.60
2022-10-05T18:42:03.998Z,70.00
2022-10-05T18:47:28.598Z,65.70
2022-10-05T18:53:13.166Z,50.50
2022-10-05T18:58:42.794Z,47.50
2022-10-05T19:03:56.166Z,34.90
2022-10-05T19:09:17.774Z,47.00
2022-10-05T19:14:53.998Z,59.10
2022-10-05T19:20:14.343Z,65.60
2022-10-05T19:25:47.994Z,63.20
2022-10-05T19:46:56.770Z,55.20
2022-10-05T19:52:00.970Z,53.80
2022-10-05T19:57:17.644Z,33.60
2022-10-05T20:02:26.372Z,27.00
2022-10-05T20:07:30.587Z,21.80
2022-10-05T20:12:57.914Z,32.50
2022-10-05T20:18:54.906Z,24.70
2022-10-05T20:24:19.921Z,31.30
2022-10-05T20:29:23.678Z,15.40
2022-10-05T20:34:27.329Z,15.10
2022-10-05T20:39:31.883Z,19.40
2022-10-05T20:44:37.771Z,28.00
2022-10-05T20:49:42.209Z,16.20
2022-10-05T20:59:54.551Z,15.60
2022-10-05T21:04:57.804Z,40.10
2022-10-05T21:15:13.059Z,18.80
2022-10-05T21:20:16.510Z,42.80
2022-10-05T21:25:19.893Z,15.90
2022-10-05T21:35:26.719Z,12.50
2022-10-05T21:40:29.968Z,14.90
2022-10-05T21:50:38.283Z,17.70
2022-10-05T21:55:45.644Z,17.20
2022-10-05T22:00:49.907Z,12.70
2022-10-05T22:05:53.090Z,14.70
2022-10-05T22:16:00.274Z,15.90
2022-10-05T22:21:06.546Z,16.80
2022-10-05T22:26:13.153Z,15.50
2022-10-05T22:31:18.582Z,16.40
2022-10-05T22:36:22.043Z,15.60
2022-10-05T22:41:25.651Z,15.30
2022-10-05T22:46:28.897Z,13.00
2022-10-05T22:56:35.380Z,12.40
2022-10-05T23:01:38.749Z,13.30
2022-10-05T23:11:52.336Z,16.20
2022-10-05T23:16:55.924Z,11.90
2022-10-05T23:21:59.113Z,18.40
2022-10-05T23:32:05.418Z,14.80
2022-10-05T23:37:08.936Z,15.30
2022-10-05T23:42:14.805Z,12.50
2022-10-05T23:47:17.910Z,13.30
2022-10-05T23:52:21.528Z,12.20
2022-10-05T23:57:25.452Z,17.60
